F/V Moorea — FMIT — position and weather

sailwx.info

Track history (hours):
 
Tides and Currents Weather Stations Pressure Air Temp Water Temp Dewpoint Dewpoint Depression Visibility Wind Speed Wind Dir Waves Ship Positions

F/V Moorea

Last reported at 2015-Apr-25 02:30 UTC. Time now 2015-Apr-28 14:28 UTC.
Position N 46°60' W 003°06'.

Length 18 m.

Type: Fishing. MMSI: 228239900.

Date/timePositionNaut miles runAvg speedWind from/ knotsBaromVisibWave heightAir tempDewpointWater temp
2015-Apr-25 02:30N 46°60' W 003°06'21 8.7
2015-Apr-25 00:08N 47°12' W 002°42'  
2015-Apr-16 06:26N 46°44' W 003°07'3 3.2
2015-Apr-16 05:22N 46°44' W 003°12'3 4.0
2015-Apr-16 04:31N 46°42' W 003°08'4 3.6
2015-Apr-16 03:16N 46°38' W 003°05'3 3.4
2015-Apr-16 02:33N 46°36' W 003°03'3 2.4
2015-Apr-16 01:31N 46°38' W 003°02'4 3.8
2015-Apr-16 00:33N 46°42' W 003°04'3 3.0
2015-Apr-15 23:33N 46°43' W 003°08'3 2.6
2015-Apr-15 22:26N 46°45' W 003°11'1 0.1
2015-Apr-15 15:31N 46°44' W 003°10'1 0.2
2015-Apr-15 09:31N 46°44' W 003°12'3 3.4
2015-Apr-15 08:33N 46°43' W 003°07'2 2.2
2015-Apr-15 07:33N 46°45' W 003°08'3 2.5
2015-Apr-15 06:31N 46°44' W 003°11'3 3.5
2015-Apr-15 05:32N 46°43' W 003°06'7 6.8
2015-Apr-15 04:32N 46°49' W 003°00'1010.0
2015-Apr-15 03:33N 46°57' W 002°53'1010.2
2015-Apr-15 02:33N 47°06' W 002°45'  
Track history (hours):
 
Tides and Currents Weather Stations Pressure Air Temp Water Temp Dewpoint Dewpoint Depression Visibility Wind Speed Wind Dir Waves Ship Positions

F/V Moorea

Last reported at 2015-Apr-25 02:30 UTC. Time now 2015-Apr-28 14:28 UTC.
Position N 46°60' W 003°06'.

Length 18 m.

Type: Fishing. MMSI: 228239900.

Date/timePositionNaut miles runAvg speedWind from/ knotsBaromVisibWave heightAir tempDewpointWater temp
2015-Apr-25 02:30N 46°60' W 003°06'21 8.7
2015-Apr-25 00:08N 47°12' W 002°42'  
2015-Apr-16 06:26N 46°44' W 003°07'3 3.2
2015-Apr-16 05:22N 46°44' W 003°12'3 4.0
2015-Apr-16 04:31N 46°42' W 003°08'4 3.6
2015-Apr-16 03:16N 46°38' W 003°05'3 3.4
2015-Apr-16 02:33N 46°36' W 003°03'3 2.4
2015-Apr-16 01:31N 46°38' W 003°02'4 3.8
2015-Apr-16 00:33N 46°42' W 003°04'3 3.0
2015-Apr-15 23:33N 46°43' W 003°08'3 2.6
2015-Apr-15 22:26N 46°45' W 003°11'1 0.1
2015-Apr-15 15:31N 46°44' W 003°10'1 0.2
2015-Apr-15 09:31N 46°44' W 003°12'3 3.4
2015-Apr-15 08:33N 46°43' W 003°07'2 2.2
2015-Apr-15 07:33N 46°45' W 003°08'3 2.5
2015-Apr-15 06:31N 46°44' W 003°11'3 3.5
2015-Apr-15 05:32N 46°43' W 003°06'7 6.8
2015-Apr-15 04:32N 46°49' W 003°00'1010.0
2015-Apr-15 03:33N 46°57' W 002°53'1010.2
2015-Apr-15 02:33N 47°06' W 002°45'  

Dump ship's entire track history